Time;durP1;ratioP1;P1;durP2;ratioP2;P2;SDS_P1;SDS_P2;PMS_P1;PMS_P2;Temp;Humidity;BMP_temperature;BMP_pressure;BME280_temperature;BME280_humidity;BME280_pressure;Samples;Min_cycle;Max_cycle;Signal;HPM_P1;HPM_P2
2022/07/21 00:01:39;;;;;;;5.00;3.30;;;;;;;25.23;39.03;100274.79;117152;1181;22104;-56
2022/07/21 00:04:06;;;;;;;4.00;3.10;;;;;;;25.17;39.19;100275.79;117213;1186;21854;-56
2022/07/21 00:06:33;;;;;;;5.90;3.00;;;;;;;25.09;39.31;100275.16;117224;1185;23432;-57
2022/07/21 00:09:00;;;;;;;3.80;3.00;;;;;;;25.03;39.30;100275.80;117280;1183;23466;-61
2022/07/21 00:11:27;;;;;;;5.30;3.50;;;;;;;24.96;39.38;100273.37;117330;1182;22979;-56
2022/07/21 00:13:54;;;;;;;5.90;3.20;;;;;;;24.90;39.59;100270.27;117238;1182;23426;-61
2022/07/21 00:16:21;;;;;;;4.70;3.20;;;;;;;24.85;39.84;100269.74;117264;1182;21844;-56
2022/07/21 00:18:50;;;;;;;5.40;3.30;;;;;;;24.76;39.93;100273.96;117211;1186;22918;-62
2022/07/21 00:21:17;;;;;;;8.10;3.90;;;;;;;24.66;40.00;100273.94;117220;1185;21863;-56
2022/07/21 00:23:45;;;;;;;4.00;3.00;;;;;;;24.57;39.96;100277.70;117123;1183;23538;-56
2022/07/21 00:26:12;;;;;;;6.10;3.40;;;;;;;24.49;40.20;100279.31;117225;1182;21856;-56
2022/07/21 00:28:39;;;;;;;4.90;3.10;;;;;;;24.43;40.39;100284.47;117350;1183;22438;-61
2022/07/21 00:31:06;;;;;;;5.20;3.30;;;;;;;24.37;40.29;100291.33;117309;1182;22104;-63
2022/07/21 00:33:33;;;;;;;7.40;3.40;;;;;;;24.31;40.33;100288.84;117158;1187;21919;-62
2022/07/21 00:36:00;;;;;;;4.10;2.90;;;;;;;24.24;40.55;100290.41;117306;1186;21866;-57
2022/07/21 00:38:26;;;;;;;7.50;3.60;;;;;;;24.22;40.53;100294.50;117251;1183;23436;-62
2022/07/21 00:40:54;;;;;;;5.40;3.70;;;;;;;24.19;40.57;100290.95;117154;1189;22934;-60
2022/07/21 00:43:21;;;;;;;5.40;3.40;;;;;;;24.16;40.67;100291.90;117250;1185;22980;-55
2022/07/21 00:45:48;;;;;;;5.10;3.10;;;;;;;24.12;40.70;100297.38;117314;1181;22906;-60
2022/07/21 00:48:15;;;;;;;4.90;3.30;;;;;;;24.07;40.92;100294.30;117430;1186;22978;-59
2022/07/21 00:50:42;;;;;;;6.20;3.70;;;;;;;24.00;41.09;100294.77;117171;1188;21898;-60
2022/07/21 00:53:09;;;;;;;3.90;2.70;;;;;;;23.95;41.22;100293.88;117232;1183;23487;-60
2022/07/21 00:55:36;;;;;;;5.50;2.70;;;;;;;23.89;41.39;100293.87;117317;1185;21919;-55
2022/07/21 00:58:04;;;;;;;5.90;3.60;;;;;;;23.87;41.38;100294.23;117721;1185;23089;-55
2022/07/21 01:00:32;;;;;;;5.90;3.50;;;;;;;23.82;41.61;100300.67;117225;1188;23653;-55
2022/07/21 01:03:04;;;;;;;5.20;3.10;;;;;;;23.74;41.68;100298.31;117249;1186;21893;-60
2022/07/21 01:05:31;;;;;;;5.70;3.40;;;;;;;23.68;41.84;100301.06;117192;1185;22918;-56
2022/07/21 01:08:02;;;;;;;8.30;3.80;;;;;;;23.64;41.88;100299.92;117287;1182;22921;-56
2022/07/21 01:10:30;;;;;;;4.50;3.20;;;;;;;23.60;42.14;100303.02;117242;1186;22924;-61
2022/07/21 01:12:58;;;;;;;5.30;3.40;;;;;;;23.57;42.14;100302.36;117378;1183;23465;-61
2022/07/21 01:15:26;;;;;;;5.00;3.50;;;;;;;23.54;42.15;100302.19;117332;1186;22965;-55
2022/07/21 01:17:53;;;;;;;8.00;3.50;;;;;;;23.52;42.04;100310.20;117331;1183;23547;-56
2022/07/21 01:20:21;;;;;;;5.80;3.50;;;;;;;23.49;42.37;100311.17;117369;1186;22629;-61
2022/07/21 01:22:50;;;;;;;4.70;3.40;;;;;;;23.45;42.36;100314.77;117380;1185;22900;-56
2022/07/21 01:25:18;;;;;;;6.20;3.40;;;;;;;23.42;42.40;100317.14;117322;1182;21863;-61
2022/07/21 01:27:46;;;;;;;7.70;3.30;;;;;;;23.38;42.33;100318.67;117282;1186;22009;-56
2022/07/21 01:30:14;;;;;;;4.60;3.40;;;;;;;23.35;42.48;100318.53;117282;1185;23550;-56
2022/07/21 01:32:41;;;;;;;6.70;3.20;;;;;;;23.33;42.55;100316.90;117369;1186;23550;-56
2022/07/21 01:35:11;;;;;;;4.90;3.30;;;;;;;23.29;42.54;100317.66;117254;1182;23647;-56
2022/07/21 01:37:41;;;;;;;5.90;3.40;;;;;;;23.24;42.63;100316.90;117349;1186;21881;-61
2022/07/21 01:42:55;;;;;;;4.90;3.20;;;;;;;23.13;42.90;100320.85;117347;1186;21921;-62
2022/07/21 01:45:22;;;;;;;4.40;3.40;;;;;;;23.07;43.01;100319.94;117252;1189;22820;-56
2022/07/21 01:47:49;;;;;;;6.00;3.60;;;;;;;23.03;43.01;100326.86;117252;1186;21918;-61
2022/07/21 01:50:18;;;;;;;5.60;3.60;;;;;;;22.97;43.21;100328.80;117368;1182;21852;-61
2022/07/21 01:52:45;;;;;;;6.70;3.60;;;;;;;22.92;43.26;100330.41;117327;1186;21966;-56
2022/07/21 01:55:13;;;;;;;4.80;3.40;;;;;;;22.88;43.27;100331.56;117347;1183;22110;-61
2022/07/21 01:57:41;;;;;;;6.90;3.90;;;;;;;22.84;43.37;100330.86;117237;1185;21884;-56
2022/07/21 02:00:08;;;;;;;6.40;3.50;;;;;;;22.82;43.32;100333.39;117495;1186;23436;-60
2022/07/21 02:02:35;;;;;;;5.80;3.40;;;;;;;22.80;43.40;100333.35;117257;1186;21933;-56
2022/07/21 02:05:03;;;;;;;6.90;3.30;;;;;;;22.78;43.49;100336.67;117154;1186;21918;-56
2022/07/21 02:07:30;;;;;;;5.60;3.80;;;;;;;22.72;43.55;100338.45;117277;1186;23728;-57
2022/07/21 02:09:57;;;;;;;6.40;3.40;;;;;;;22.67;43.61;100337.55;117292;1186;24157;-61
2022/07/21 02:12:24;;;;;;;7.10;3.60;;;;;;;22.67;43.57;100339.02;117261;1186;22624;-61
2022/07/21 02:14:51;;;;;;;6.40;3.50;;;;;;;22.65;43.72;100339.98;117275;1186;24146;-56
2022/07/21 02:17:18;;;;;;;8.80;3.90;;;;;;;22.62;43.78;100343.23;117299;1188;23535;-61
2022/07/21 02:19:46;;;;;;;6.50;3.40;;;;;;;22.59;43.76;100345.77;117290;1183;22959;-56
2022/07/21 02:22:13;;;;;;;6.30;3.40;;;;;;;22.54;43.82;100350.33;117356;1183;23541;-55
2022/07/21 02:24:40;;;;;;;6.70;3.60;;;;;;;22.50;43.97;100356.85;117246;1189;23541;-55
2022/07/21 02:27:08;;;;;;;6.60;3.50;;;;;;;22.46;44.03;100354.39;117397;1186;22795;-55
2022/07/21 02:29:35;;;;;;;6.20;3.70;;;;;;;22.42;44.15;100355.00;117313;1186;23542;-60
2022/07/21 02:32:03;;;;;;;4.60;3.50;;;;;;;22.38;44.32;100359.17;117263;1186;22943;-55
2022/07/21 02:34:30;;;;;;;4.80;3.40;;;;;;;22.33;44.24;100362.50;117230;1182;21898;-55
2022/07/21 02:36:57;;;;;;;7.80;3.40;;;;;;;22.30;44.44;100360.59;117210;1182;24287;-57
2022/07/21 02:39:25;;;;;;;6.00;3.80;;;;;;;22.27;44.37;100363.97;117219;1186;21901;-55
2022/07/21 02:41:53;;;;;;;4.70;3.20;;;;;;;22.25;44.39;100367.30;117221;1185;22705;-62
2022/07/21 02:44:20;;;;;;;5.10;3.10;;;;;;;22.23;44.40;100365.98;117249;1186;23509;-61
2022/07/21 02:46:47;;;;;;;5.40;3.00;;;;;;;22.21;44.55;100365.39;117201;1186;24130;-61
2022/07/21 02:49:15;;;;;;;4.90;3.30;;;;;;;22.19;44.75;100366.98;117264;1186;22618;-56
2022/07/21 02:51:42;;;;;;;5.90;3.70;;;;;;;22.16;44.75;100371.42;117288;1183;24166;-57
2022/07/21 02:54:09;;;;;;;4.80;3.10;;;;;;;22.14;44.85;100378.13;117127;1187;22904;-62
2022/07/21 02:56:38;;;;;;;5.90;3.40;;;;;;;22.13;45.06;100383.91;117272;1186;21856;-57
2022/07/21 02:59:05;;;;;;;4.30;3.20;;;;;;;22.11;45.09;100383.49;117297;1186;21967;-56
2022/07/21 03:01:32;;;;;;;5.40;3.50;;;;;;;22.10;45.23;100391.78;117280;1186;21850;-56
2022/07/21 03:03:59;;;;;;;5.60;3.40;;;;;;;22.08;45.45;100391.02;117253;1186;22999;-62
2022/07/21 03:06:26;;;;;;;4.30;3.50;;;;;;;22.06;45.44;100401.66;116983;1187;21859;-56
2022/07/21 03:08:53;;;;;;;5.10;3.40;;;;;;;22.05;45.56;100404.79;117155;1186;24252;-56
2022/07/21 03:11:21;;;;;;;7.40;4.00;;;;;;;21.98;45.79;100404.98;117190;1186;21857;-56
2022/07/21 03:13:48;;;;;;;6.10;4.10;;;;;;;21.99;45.96;100407.94;117272;1182;23529;-63
2022/07/21 03:16:15;;;;;;;7.00;3.70;;;;;;;22.06;45.93;100412.73;117275;1186;21958;-56
2022/07/21 03:18:42;;;;;;;6.90;4.30;;;;;;;22.09;46.24;100416.17;117283;1186;22914;-56
2022/07/21 03:21:10;;;;;;;10.50;4.00;;;;;;;22.08;46.41;100420.88;117301;1186;22906;-61
2022/07/21 03:23:38;;;;;;;6.90;3.80;;;;;;;22.04;46.57;100418.09;117277;1185;22924;-56
2022/07/21 03:26:05;;;;;;;7.20;4.60;;;;;;;22.05;46.71;100424.05;117323;1183;22626;-56
2022/07/21 03:28:32;;;;;;;7.00;4.30;;;;;;;22.09;47.06;100425.98;117275;1185;21853;-60
2022/07/21 03:30:59;;;;;;;7.40;4.50;;;;;;;22.17;47.03;100427.46;117281;1186;22420;-61
2022/07/21 03:33:26;;;;;;;6.70;4.80;;;;;;;22.18;47.18;100428.65;117259;1185;22652;-62
2022/07/21 03:35:57;;;;;;;8.60;4.00;;;;;;;22.19;47.38;100426.29;117286;1186;22621;-61
2022/07/21 03:38:25;;;;;;;7.50;5.10;;;;;;;22.24;47.48;100429.01;117270;1183;21869;-56
2022/07/21 03:40:52;;;;;;;6.60;4.80;;;;;;;22.35;47.33;100430.70;117305;1186;23540;-56
2022/07/21 03:43:19;;;;;;;6.00;4.80;;;;;;;22.40;47.40;100434.66;117229;1183;21870;-56
2022/07/21 03:45:46;;;;;;;5.60;4.40;;;;;;;22.41;47.56;100435.29;117259;1185;22615;-62
2022/07/21 03:48:14;;;;;;;7.70;4.90;;;;;;;22.44;47.69;100439.27;117253;1183;23539;-56
2022/07/21 03:50:45;;;;;;;6.40;4.30;;;;;;;22.50;47.83;100441.75;117097;1186;21871;-63
2022/07/21 03:53:11;;;;;;;7.10;4.60;;;;;;;22.53;47.93;100438.57;117303;1186;22943;-61
2022/07/21 03:55:38;;;;;;;9.40;4.80;;;;;;;22.59;47.72;100437.61;116979;1187;22633;-63
2022/07/21 03:58:05;;;;;;;6.50;4.40;;;;;;;22.64;47.63;100437.71;117197;1182;22922;-55
2022/07/21 04:00:39;;;;;;;6.50;4.60;;;;;;;22.64;47.61;100441.66;117185;1183;22940;-62
2022/07/21 04:03:06;;;;;;;7.40;4.30;;;;;;;22.68;47.65;100438.13;117281;1186;21924;-55
2022/07/21 04:05:34;;;;;;;6.10;4.00;;;;;;;22.77;47.48;100440.46;117151;1186;22136;-62
2022/07/21 04:08:01;;;;;;;4.90;3.90;;;;;;;22.83;47.23;100440.25;117210;1182;24210;-56
2022/07/21 04:10:29;;;;;;;7.60;4.50;;;;;;;22.87;47.11;100442.55;117466;1186;21885;-55
2022/07/21 04:12:58;;;;;;;6.80;4.40;;;;;;;22.98;47.03;100446.70;117239;1186;23543;-62
2022/07/21 04:15:25;;;;;;;7.90;4.20;;;;;;;23.01;46.84;100444.85;117162;1182;21862;-62
2022/07/21 04:17:52;;;;;;;7.00;3.50;;;;;;;23.09;46.65;100441.50;117181;1186;21865;-62
2022/07/21 04:20:19;;;;;;;5.00;3.50;;;;;;;23.17;46.46;100439.05;117156;1183;23564;-62
2022/07/21 04:22:46;;;;;;;5.70;3.70;;;;;;;23.21;46.38;100439.00;117175;1183;22975;-56
2022/07/21 04:25:14;;;;;;;7.60;3.90;;;;;;;23.26;46.05;100439.90;117102;1184;23606;-56
2022/07/21 04:27:42;;;;;;;4.50;2.70;;;;;;;23.34;45.93;100442.77;117340;1183;23049;-62
2022/07/21 04:30:10;;;;;;;5.10;3.00;;;;;;;23.43;45.84;100443.13;117325;1182;22992;-56
2022/07/21 04:32:38;;;;;;;6.10;2.90;;;;;;;23.53;45.54;100439.98;117131;1185;22988;-62
2022/07/21 04:35:06;;;;;;;4.20;3.00;;;;;;;23.65;45.42;100438.86;117146;1186;21930;-55
2022/07/21 04:37:33;;;;;;;4.90;3.10;;;;;;;23.75;45.04;100437.41;117244;1186;22966;-62
2022/07/21 04:40:00;;;;;;;6.20;2.40;;;;;;;23.88;44.83;100437.32;117177;1189;23583;-56
2022/07/21 04:42:27;;;;;;;5.30;2.80;;;;;;;24.02;44.25;100441.05;117276;1183;22963;-56
2022/07/21 04:44:55;;;;;;;4.20;2.50;;;;;;;24.14;43.90;100440.79;117140;1187;22906;-61
2022/07/21 04:47:23;;;;;;;4.30;2.50;;;;;;;24.25;43.86;100439.46;117233;1185;21854;-62
2022/07/21 04:49:50;;;;;;;5.60;2.60;;;;;;;24.44;44.02;100445.39;117293;1186;21860;-58
2022/07/21 04:52:17;;;;;;;6.90;2.60;;;;;;;24.75;43.83;100447.02;117324;1182;23871;-54
2022/07/21 04:54:44;;;;;;;6.30;2.50;;;;;;;25.05;43.26;100451.55;117284;1188;23545;-64
2022/07/21 04:57:12;;;;;;;8.40;2.20;;;;;;;25.30;42.78;100448.61;117039;1183;23444;-54
2022/07/21 04:59:39;;;;;;;6.80;2.10;;;;;;;25.53;42.55;100449.65;117124;1186;21894;-54
2022/07/21 05:02:06;;;;;;;4.80;2.10;;;;;;;25.77;42.26;100452.00;117198;1183;22005;-60
2022/07/21 05:04:33;;;;;;;7.10;1.90;;;;;;;26.00;41.97;100452.31;117299;1186;22937;-60
2022/07/21 05:07:00;;;;;;;5.10;1.80;;;;;;;26.20;41.59;100454.20;117260;1185;22956;-60
2022/07/21 05:09:27;;;;;;;13.60;2.60;;;;;;;26.39;41.39;100454.16;117273;1182;22273;-54
2022/07/21 05:11:54;;;;;;;21.40;4.10;;;;;;;26.59;41.15;100452.63;117230;1185;21859;-55
2022/07/21 05:14:21;;;;;;;14.70;3.10;;;;;;;26.78;40.81;100444.55;117306;1182;22922;-62
2022/07/21 05:16:48;;;;;;;42.70;5.20;;;;;;;26.99;40.49;100447.16;117158;1186;21848;-60
2022/07/21 05:19:15;;;;;;;9.40;2.20;;;;;;;27.14;39.98;100452.10;117246;1183;22645;-61
2022/07/21 05:21:42;;;;;;;5.30;1.70;;;;;;;27.12;39.57;100454.41;117299;1182;22805;-60
2022/07/21 05:24:09;;;;;;;11.20;2.20;;;;;;;27.01;39.45;100455.84;117261;1182;21836;-56
2022/07/21 05:26:36;;;;;;;3.20;1.80;;;;;;;26.89;39.62;100457.70;117298;1182;22954;-56
2022/07/21 05:29:03;;;;;;;4.00;1.60;;;;;;;26.83;39.70;100464.14;117185;1183;23439;-56
2022/07/21 05:31:30;;;;;;;5.20;2.00;;;;;;;26.84;39.69;100467.81;117255;1185;21837;-62
2022/07/21 05:33:57;;;;;;;4.90;2.00;;;;;;;26.89;39.50;100458.61;117278;1186;21847;-60
2022/07/21 05:36:24;;;;;;;4.00;1.90;;;;;;;26.93;39.22;100461.86;117278;1186;22611;-56
2022/07/21 05:38:51;;;;;;;6.60;2.20;;;;;;;26.95;39.18;100456.36;117255;1186;21854;-62
2022/07/21 05:41:21;;;;;;;6.80;1.90;;;;;;;27.01;39.20;100455.83;117369;1186;22959;-56
2022/07/21 05:43:48;;;;;;;8.80;1.90;;;;;;;27.10;39.11;100453.35;117237;1185;21874;-56
2022/07/21 05:46:15;;;;;;;5.10;2.00;;;;;;;27.19;38.93;100452.93;117224;1186;24154;-61
2022/07/21 05:48:42;;;;;;;5.70;1.90;;;;;;;27.38;38.65;100452.55;117261;1186;21871;-62
2022/07/21 05:51:09;;;;;;;3.40;1.60;;;;;;;27.46;38.61;100452.77;117380;1182;23434;-61
2022/07/21 05:53:44;;;;;;;3.90;1.50;;;;;;;27.57;38.53;100455.34;117248;1185;23178;-61
2022/07/21 05:56:11;;;;;;;5.90;1.90;;;;;;;27.70;38.26;100457.98;117289;1182;22300;-57
2022/07/21 05:58:38;;;;;;;2.40;1.50;;;;;;;27.91;38.09;100455.55;117209;1186;23561;-57
2022/07/21 06:01:08;;;;;;;4.40;2.10;;;;;;;28.15;37.79;100454.84;117148;1186;22966;-61
2022/07/21 06:03:36;;;;;;;6.20;1.60;;;;;;;28.17;37.51;100459.54;117305;1182;21941;-60
2022/07/21 06:06:04;;;;;;;4.30;1.80;;;;;;;28.22;37.28;100463.07;117323;1185;22947;-61
2022/07/21 06:08:31;;;;;;;4.00;1.70;;;;;;;28.30;37.07;100462.75;117210;1187;22637;-60
2022/07/21 06:10:58;;;;;;;3.50;1.90;;;;;;;28.39;36.89;100460.39;117294;1182;22622;-60
2022/07/21 06:13:25;;;;;;;6.10;2.10;;;;;;;28.51;36.37;100460.89;117180;1183;21871;-57
2022/07/21 06:15:52;;;;;;;4.90;1.70;;;;;;;28.54;36.29;100465.17;117212;1186;21858;-60
2022/07/21 06:18:19;;;;;;;5.10;1.80;;;;;;;28.59;36.58;100461.14;117239;1185;22902;-60
2022/07/21 06:20:48;;;;;;;4.80;1.70;;;;;;;28.82;36.47;100463.17;117113;1187;21861;-60
2022/07/21 06:23:15;;;;;;;3.60;1.70;;;;;;;29.06;36.34;100465.39;116977;1187;21866;-57
2022/07/21 06:25:42;;;;;;;5.00;1.70;;;;;;;29.34;35.95;100467.76;117172;1182;23435;-61
2022/07/21 06:28:11;;;;;;;3.60;1.60;;;;;;;29.47;35.04;100468.80;117123;1186;21864;-56
2022/07/21 06:30:39;;;;;;;2.10;1.70;;;;;;;29.38;35.32;100470.52;117464;1185;21857;-56
2022/07/21 06:33:06;;;;;;;7.30;1.80;;;;;;;29.39;35.55;100471.12;117385;1183;21844;-56
2022/07/21 06:35:33;;;;;;;3.20;1.80;;;;;;;29.48;35.27;100470.73;117069;1188;22622;-56
2022/07/21 06:38:00;;;;;;;4.60;1.70;;;;;;;29.65;35.14;100470.98;117210;1186;23541;-61
2022/07/21 06:40:28;;;;;;;6.30;1.80;;;;;;;29.74;34.66;100469.54;117221;1183;23471;-60
2022/07/21 06:42:55;;;;;;;4.50;1.80;;;;;;;29.79;34.53;100470.42;117346;1184;22625;-56
2022/07/21 06:45:42;;;;;;;2.60;1.80;;;;;;;29.97;34.29;100470.36;117266;1186;23541;-57
2022/07/21 06:48:10;;;;;;;5.40;1.50;;;;;;;30.00;34.12;100470.73;117352;1185;23684;-60
2022/07/21 06:50:37;;;;;;;5.20;1.60;;;;;;;30.09;34.07;100472.94;117309;1180;21868;-60
2022/07/21 06:53:05;;;;;;;8.00;2.10;;;;;;;30.29;34.35;100475.26;117302;1184;21935;-57
2022/07/21 06:55:33;;;;;;;2.80;1.60;;;;;;;30.62;33.73;100475.73;117302;1184;21860;-60
2022/07/21 06:58:10;;;;;;;9.10;1.60;;;;;;;30.83;33.42;100475.54;117312;1186;23073;-57
2022/07/21 07:00:37;;;;;;;3.10;1.10;;;;;;;30.95;33.24;100469.11;117378;1186;23817;-60
2022/07/21 07:03:06;;;;;;;8.10;1.20;;;;;;;31.06;32.42;100461.37;117078;1183;23459;-59
2022/07/21 07:05:34;;;;;;;7.30;1.70;;;;;;;31.07;32.64;100459.98;117089;1187;22916;-56
2022/07/21 07:08:03;;;;;;;4.80;1.40;;;;;;;31.12;32.70;100459.66;117385;1183;22178;-60
2022/07/21 07:10:37;;;;;;;6.50;1.50;;;;;;;31.28;32.46;100455.96;117127;1187;21854;-56
2022/07/21 07:13:04;;;;;;;7.90;1.90;;;;;;;31.43;32.40;100453.10;117140;1187;22737;-58
2022/07/21 07:15:52;;;;;;;3.70;1.60;;;;;;;31.72;32.01;100442.40;117243;1183;23598;-57
2022/07/21 07:18:21;;;;;;;7.10;1.70;;;;;;;31.80;30.61;100442.84;117283;1183;21858;-58
2022/07/21 07:20:48;;;;;;;5.70;2.20;;;;;;;31.68;30.57;100439.02;117273;1186;23458;-57
2022/07/21 07:23:16;;;;;;;4.70;1.80;;;;;;;31.61;30.61;100442.20;117244;1185;22906;-61
2022/07/21 07:25:44;;;;;;;6.20;1.90;;;;;;;31.65;30.69;100443.67;117197;1186;21943;-61
2022/07/21 07:28:13;;;;;;;5.70;2.00;;;;;;;31.77;29.30;100439.23;117082;1182;23417;-62
2022/07/21 07:30:40;;;;;;;4.00;1.40;;;;;;;31.86;29.98;100438.45;117197;1185;21844;-62
2022/07/21 07:33:08;;;;;;;3.10;1.60;;;;;;;31.95;29.67;100437.41;117223;1185;22804;-58
2022/07/21 07:35:35;;;;;;;6.00;1.90;;;;;;;32.01;29.01;100430.04;117125;1186;21871;-57
2022/07/21 07:38:02;;;;;;;7.20;1.90;;;;;;;31.93;27.94;100431.09;117200;1184;22827;-60
2022/07/21 07:40:29;;;;;;;4.10;1.60;;;;;;;31.78;28.94;100426.78;117340;1185;23551;-61
2022/07/21 07:42:57;;;;;;;3.20;1.60;;;;;;;31.70;29.43;100426.95;117070;1186;22716;-57
2022/07/21 07:45:31;;;;;;;5.80;1.40;;;;;;;31.87;29.53;100429.11;116899;1187;21871;-57
2022/07/21 07:47:58;;;;;;;3.80;1.70;;;;;;;32.18;29.70;100426.90;117336;1184;21859;-61
2022/07/21 07:50:25;;;;;;;2.70;1.30;;;;;;;32.55;29.49;100427.63;117119;1182;22668;-61
2022/07/21 07:52:52;;;;;;;8.90;1.50;;;;;;;32.77;27.81;100424.95;116924;1183;23531;-61
2022/07/21 07:55:20;;;;;;;8.00;2.30;;;;;;;32.72;27.30;100426.17;117060;1182;22795;-61
2022/07/21 07:57:47;;;;;;;4.50;1.40;;;;;;;32.65;28.17;100424.21;117344;1181;23544;-60
2022/07/21 08:00:16;;;;;;;4.80;1.50;;;;;;;32.55;27.33;100421.23;117025;1185;22932;-57
2022/07/21 08:03:05;;;;;;;3.00;1.50;;;;;;;32.34;27.24;100422.47;117129;1187;22913;-61
2022/07/21 08:05:32;;;;;;;3.20;1.50;;;;;;;32.34;27.16;100423.02;117265;1185;23620;-61
2022/07/21 08:07:59;;;;;;;3.60;1.70;;;;;;;32.47;27.65;100422.82;117115;1185;23552;-61
2022/07/21 08:10:26;;;;;;;3.30;1.40;;;;;;;32.58;28.06;100417.77;117308;1186;21882;-58
2022/07/21 08:13:14;;;;;;;7.50;1.70;;;;;;;32.68;27.40;100422.98;117214;1184;22941;-59
2022/07/21 08:15:42;;;;;;;3.50;1.60;;;;;;;32.70;27.47;100424.57;117291;1182;22923;-59
2022/07/21 08:18:10;;;;;;;4.90;2.10;;;;;;;32.81;26.76;100418.00;117344;1183;21857;-58
2022/07/21 08:20:37;;;;;;;13.90;2.00;;;;;;;32.93;26.71;100411.32;117203;1185;21881;-58
2022/07/21 08:23:05;;;;;;;3.60;1.60;;;;;;;33.08;26.85;100408.36;117265;1186;21854;-58
2022/07/21 08:25:32;;;;;;;7.00;1.80;;;;;;;33.29;26.42;100415.95;117243;1183;23455;-60
2022/07/21 08:27:59;;;;;;;5.90;1.60;;;;;;;33.42;26.42;100418.39;117075;1187;21859;-59
2022/07/21 08:30:28;;;;;;;3.70;1.50;;;;;;;33.48;25.99;100413.60;118115;1183;23650;-58
2022/07/21 08:32:58;;;;;;;6.30;1.40;;;;;;;33.47;26.09;100409.91;117330;1186;21902;-59
2022/07/21 08:35:25;;;;;;;3.10;1.40;;;;;;;33.58;26.23;100406.30;117391;1185;23605;-61
2022/07/21 08:38:03;;;;;;;8.90;1.70;;;;;;;33.63;25.43;100407.57;117391;1186;21855;-59
2022/07/21 08:40:33;;;;;;;1.80;1.30;;;;;;;33.34;25.06;100409.05;117097;1185;21947;-58
2022/07/21 08:43:01;;;;;;;4.20;1.20;;;;;;;33.08;24.83;100402.61;117294;1187;24215;-58
2022/07/21 08:45:30;;;;;;;5.20;1.20;;;;;;;33.10;25.55;100400.37;117427;1181;21906;-62
2022/07/21 08:47:58;;;;;;;4.60;1.10;;;;;;;33.26;25.55;100400.06;117377;1184;22895;-58
2022/07/21 08:50:31;;;;;;;10.90;1.40;;;;;;;33.35;24.18;100391.36;117122;1184;21963;-58
2022/07/21 08:52:58;;;;;;;5.80;1.60;;;;;;;33.22;23.94;100392.59;117127;1186;21858;-59
2022/07/21 08:55:34;;;;;;;4.00;1.10;;;;;;;33.13;24.64;100399.52;117066;1186;21857;-60
2022/07/21 08:58:03;;;;;;;4.80;1.10;;;;;;;33.13;24.80;100394.82;117177;1186;21858;-59
2022/07/21 09:00:34;;;;;;;5.00;1.20;;;;;;;33.33;24.49;100394.70;117248;1186;22902;-58
2022/07/21 09:03:13;;;;;;;4.20;1.10;;;;;;;33.49;24.55;100389.16;117438;1182;23446;-58
2022/07/21 09:05:42;;;;;;;3.00;1.10;;;;;;;33.57;24.90;100384.03;117258;1186;21888;-59
2022/07/21 09:08:10;;;;;;;4.00;1.00;;;;;;;33.64;23.73;100382.95;117339;1185;23815;-61
2022/07/21 09:10:37;;;;;;;3.60;1.30;;;;;;;33.72;23.69;100384.04;117336;1185;21857;-60
2022/07/21 09:13:06;;;;;;;4.50;0.90;;;;;;;33.82;24.02;100377.66;117278;1185;23571;-61
2022/07/21 09:15:33;;;;;;;7.30;2.10;;;;;;;33.94;23.95;100371.88;117323;1183;21856;-58
2022/07/21 09:18:12;;;;;;;3.80;1.00;;;;;;;34.09;23.83;100369.84;117227;1186;23455;-58
2022/07/21 09:20:48;;;;;;;6.40;1.30;;;;;;;34.27;22.92;100369.77;117237;1182;21858;-57
2022/07/21 09:23:18;;;;;;;5.40;1.90;;;;;;;34.40;23.49;100369.73;117321;1182;21970;-57
2022/07/21 09:25:50;;;;;;;5.20;1.60;;;;;;;34.69;23.54;100368.44;117127;1183;22647;-61
2022/07/21 09:28:21;;;;;;;6.60;1.10;;;;;;;35.09;23.76;100357.31;117429;1184;23609;-58
2022/07/21 09:30:59;;;;;;;2.10;1.00;;;;;;;35.53;23.51;100359.95;117046;1180;23538;-63
2022/07/21 09:33:34;;;;;;;2.20;0.80;;;;;;;35.82;22.47;100358.00;117087;1187;21895;-58
2022/07/21 09:36:09;;;;;;;4.90;1.00;;;;;;;35.78;21.75;100351.02;117232;1182;22002;-57
2022/07/21 09:38:50;;;;;;;1.30;0.90;;;;;;;35.65;22.45;100354.77;117405;1185;22910;-57
2022/07/21 09:41:20;;;;;;;7.10;1.30;;;;;;;35.89;22.92;100347.71;117008;1188;22892;-63
2022/07/21 09:43:54;;;;;;;6.50;1.20;;;;;;;36.12;22.22;100337.84;117149;1185;22907;-58
2022/07/21 09:46:29;;;;;;;3.40;1.40;;;;;;;36.21;22.09;100346.27;117350;1182;23430;-60
2022/07/21 09:48:58;;;;;;;5.50;1.00;;;;;;;36.23;22.13;100346.38;117392;1184;22073;-62
2022/07/21 09:51:45;;;;;;;6.30;1.70;;;;;;;36.28;21.65;100343.92;117304;1182;22903;-61
2022/07/21 09:54:13;;;;;;;7.40;2.70;;;;;;;36.42;21.13;100338.93;117182;1182;22525;-58
2022/07/21 09:56:43;;;;;;;6.00;1.80;;;;;;;36.38;21.12;100333.41;117267;1185;24140;-58
2022/07/21 09:59:12;;;;;;;7.10;2.60;;;;;;;36.31;21.10;100338.66;117273;1186;22840;-58
2022/07/21 10:01:39;;;;;;;8.80;3.60;;;;;;;36.15;20.58;100339.95;117349;1185;23462;-62
2022/07/21 10:04:07;;;;;;;14.60;2.40;;;;;;;36.09;20.98;100340.24;117173;1187;21821;-62
2022/07/21 10:06:35;;;;;;;8.60;2.30;;;;;;;36.10;20.78;100343.25;117409;1186;24165;-61
2022/07/21 10:09:04;;;;;;;5.60;2.10;;;;;;;36.21;21.49;100338.23;117303;1184;21860;-59
2022/07/21 10:11:32;;;;;;;6.90;1.90;;;;;;;36.50;21.27;100334.46;117320;1181;22909;-60
2022/07/21 10:13:59;;;;;;;17.50;2.20;;;;;;;36.78;21.02;100335.65;117053;1186;21876;-62
2022/07/21 10:16:26;;;;;;;12.00;2.20;;;;;;;36.76;20.53;100330.91;117071;1185;22644;-58
2022/07/21 10:19:15;;;;;;;6.60;1.50;;;;;;;36.65;19.57;100333.58;117290;1186;22845;-60
2022/07/21 10:21:55;;;;;;;6.40;1.80;;;;;;;36.43;18.98;100332.64;117348;1184;21883;-58
2022/07/21 10:24:23;;;;;;;4.10;1.60;;;;;;;36.20;19.21;100344.50;117319;1185;21867;-62
2022/07/21 10:27:02;;;;;;;23.10;2.40;;;;;;;36.07;19.55;100345.48;117083;1184;22020;-59
2022/07/21 10:29:52;;;;;;;2.20;1.30;;;;;;;36.04;20.02;100348.51;117280;1187;23724;-60
2022/07/21 10:32:30;;;;;;;4.80;1.30;;;;;;;36.14;19.87;100343.13;117037;1186;24198;-59
2022/07/21 10:35:00;;;;;;;3.10;1.80;;;;;;;36.29;19.90;100340.18;117022;1186;22931;-60
2022/07/21 10:37:39;;;;;;;3.50;2.20;;;;;;;36.41;19.91;100329.77;117167;1186;22642;-59
2022/07/21 10:40:18;;;;;;;8.50;2.80;;;;;;;36.58;19.71;100329.75;117263;1185;22967;-59
2022/07/21 10:42:58;;;;;;;5.20;3.30;;;;;;;36.74;19.21;100330.29;117244;1186;21995;-61
2022/07/21 10:45:39;;;;;;;10.50;4.50;;;;;;;36.77;18.84;100329.56;117258;1187;22854;-60
2022/07/21 10:48:37;;;;;;;9.50;4.90;;;;;;;36.68;19.20;100326.64;117306;1185;23534;-58
2022/07/21 10:51:08;;;;;;;5.50;4.50;;;;;;;36.73;19.27;100330.02;117314;1185;22982;-61
2022/07/21 10:53:36;;;;;;;22.20;5.60;;;;;;;36.84;18.76;100327.72;117082;1182;21864;-60
2022/07/21 10:56:03;;;;;;;8.30;4.10;;;;;;;36.76;18.59;100328.05;117083;1185;23540;-59
2022/07/21 10:58:37;;;;;;;7.40;4.10;;;;;;;36.59;19.06;100321.02;117375;1184;22818;-61
2022/07/21 11:01:14;;;;;;;5.90;3.50;;;;;;;36.65;18.59;100315.52;117285;1185;21855;-60
2022/07/21 11:04:05;;;;;;;4.70;2.60;;;;;;;36.73;18.54;100317.77;117333;1186;21957;-60
2022/07/21 11:06:33;;;;;;;6.10;2.80;;;;;;;36.67;18.72;100323.64;117225;1185;22625;-61
2022/07/21 11:09:03;;;;;;;5.60;2.30;;;;;;;36.68;18.67;100321.30;117468;1185;23528;-58
2022/07/21 11:11:34;;;;;;;;;;;;;;;36.83;18.97;100319.65;117139;1186;22938;-58
2022/07/21 11:14:06;;;;;;;6.80;2.30;;;;;;;37.01;18.74;100308.26;117331;1186;22427;-58
2022/07/21 11:16:43;;;;;;;8.20;2.30;;;;;;;37.07;18.37;100309.55;117117;1185;21855;-61
2022/07/21 11:19:39;;;;;;;5.50;1.90;;;;;;;37.06;18.29;100313.73;117310;1185;21864;-60
2022/07/21 11:22:23;;;;;;;2.60;1.40;;;;;;;37.05;18.63;100313.97;117290;1182;21878;-61
2022/07/21 11:25:00;;;;;;;4.10;1.30;;;;;;;37.09;18.90;100309.77;117484;1185;22029;-59
2022/07/21 11:27:30;;;;;;;3.20;1.40;;;;;;;37.27;18.95;100304.67;117341;1182;21869;-62
2022/07/21 11:30:00;;;;;;;3.40;1.40;;;;;;;37.41;18.77;100306.33;117420;1182;21863;-60